sensor_id;sensor_type;location;lat;lon;timestamp;P1;durP1;ratioP1;P2;durP2;ratioP2
33690;SDS011;20026;50.058;18.428;2022-10-17T00:00:46;37.40;;;25.92;;
33690;SDS011;20026;50.058;18.428;2022-10-17T00:03:11;35.13;;;24.00;;
33690;SDS011;20026;50.058;18.428;2022-10-17T00:05:38;33.95;;;23.15;;
33690;SDS011;20026;50.058;18.428;2022-10-17T00:08:05;34.30;;;23.08;;
33690;SDS011;20026;50.058;18.428;2022-10-17T00:10:31;31.17;;;21.60;;
33690;SDS011;20026;50.058;18.428;2022-10-17T00:12:57;29.85;;;22.38;;
33690;SDS011;20026;50.058;18.428;2022-10-17T00:15:23;33.47;;;22.70;;
33690;SDS011;20026;50.058;18.428;2022-10-17T00:17:49;33.58;;;22.85;;
33690;SDS011;20026;50.058;18.428;2022-10-17T00:20:15;31.52;;;21.83;;
33690;SDS011;20026;50.058;18.428;2022-10-17T00:22:41;30.75;;;22.85;;
33690;SDS011;20026;50.058;18.428;2022-10-17T00:25:07;33.38;;;23.00;;
33690;SDS011;20026;50.058;18.428;2022-10-17T00:27:34;40.38;;;25.88;;
33690;SDS011;20026;50.058;18.428;2022-10-17T00:30:00;34.30;;;23.63;;
33690;SDS011;20026;50.058;18.428;2022-10-17T00:32:26;30.83;;;22.23;;
33690;SDS011;20026;50.058;18.428;2022-10-17T00:34:52;32.15;;;21.45;;
33690;SDS011;20026;50.058;18.428;2022-10-17T00:37:18;34.85;;;22.83;;
33690;SDS011;20026;50.058;18.428;2022-10-17T00:39:44;35.92;;;24.83;;
33690;SDS011;20026;50.058;18.428;2022-10-17T00:42:13;32.63;;;23.67;;
33690;SDS011;20026;50.058;18.428;2022-10-17T00:47:05;34.17;;;25.33;;
33690;SDS011;20026;50.058;18.428;2022-10-17T00:49:35;42.65;;;29.05;;
33690;SDS011;20026;50.058;18.428;2022-10-17T00:52:02;37.03;;;25.10;;
33690;SDS011;20026;50.058;18.428;2022-10-17T00:54:30;33.67;;;24.13;;
33690;SDS011;20026;50.058;18.428;2022-10-17T00:56:58;32.33;;;23.40;;
33690;SDS011;20026;50.058;18.428;2022-10-17T00:59:24;48.38;;;30.25;;
33690;SDS011;20026;50.058;18.428;2022-10-17T01:01:53;43.45;;;29.77;;
33690;SDS011;20026;50.058;18.428;2022-10-17T01:04:21;40.45;;;29.42;;
33690;SDS011;20026;50.058;18.428;2022-10-17T01:06:47;55.60;;;37.00;;
33690;SDS011;20026;50.058;18.428;2022-10-17T01:09:13;36.13;;;27.45;;
33690;SDS011;20026;50.058;18.428;2022-10-17T01:11:48;38.13;;;27.23;;
33690;SDS011;20026;50.058;18.428;2022-10-17T01:14:25;55.55;;;39.13;;
33690;SDS011;20026;50.058;18.428;2022-10-17T01:17:03;57.95;;;36.85;;
33690;SDS011;20026;50.058;18.428;2022-10-17T01:22:08;44.95;;;32.22;;
33690;SDS011;20026;50.058;18.428;2022-10-17T01:24:46;38.55;;;29.98;;
33690;SDS011;20026;50.058;18.428;2022-10-17T01:32:15;42.25;;;31.05;;
33690;SDS011;20026;50.058;18.428;2022-10-17T01:37:37;38.25;;;27.88;;
33690;SDS011;20026;50.058;18.428;2022-10-17T01:40:26;45.70;;;30.92;;
33690;SDS011;20026;50.058;18.428;2022-10-17T01:42:56;39.58;;;26.63;;
33690;SDS011;20026;50.058;18.428;2022-10-17T01:45:36;52.72;;;32.10;;
33690;SDS011;20026;50.058;18.428;2022-10-17T01:48:04;42.10;;;28.48;;
33690;SDS011;20026;50.058;18.428;2022-10-17T01:50:32;38.72;;;27.73;;
33690;SDS011;20026;50.058;18.428;2022-10-17T01:53:01;42.20;;;27.85;;
33690;SDS011;20026;50.058;18.428;2022-10-17T01:55:30;43.08;;;26.83;;
33690;SDS011;20026;50.058;18.428;2022-10-17T01:58:02;34.50;;;26.00;;
33690;SDS011;20026;50.058;18.428;2022-10-17T02:00:30;37.30;;;25.80;;
33690;SDS011;20026;50.058;18.428;2022-10-17T02:02:58;40.83;;;27.27;;
33690;SDS011;20026;50.058;18.428;2022-10-17T02:05:26;42.20;;;28.85;;
33690;SDS011;20026;50.058;18.428;2022-10-17T02:07:53;39.67;;;29.07;;
33690;SDS011;20026;50.058;18.428;2022-10-17T02:10:23;46.22;;;32.13;;
33690;SDS011;20026;50.058;18.428;2022-10-17T02:12:55;46.15;;;34.05;;
33690;SDS011;20026;50.058;18.428;2022-10-17T02:15:32;42.22;;;30.58;;
33690;SDS011;20026;50.058;18.428;2022-10-17T02:23:12;40.33;;;27.83;;
33690;SDS011;20026;50.058;18.428;2022-10-17T02:25:44;36.10;;;25.83;;
33690;SDS011;20026;50.058;18.428;2022-10-17T02:28:18;40.70;;;27.42;;
33690;SDS011;20026;50.058;18.428;2022-10-17T02:30:53;40.45;;;29.27;;
33690;SDS011;20026;50.058;18.428;2022-10-17T02:35:46;40.58;;;27.17;;
33690;SDS011;20026;50.058;18.428;2022-10-17T02:38:14;40.63;;;27.43;;
33690;SDS011;20026;50.058;18.428;2022-10-17T02:40:41;41.40;;;29.35;;
33690;SDS011;20026;50.058;18.428;2022-10-17T02:43:07;38.58;;;28.20;;
33690;SDS011;20026;50.058;18.428;2022-10-17T02:45:33;43.33;;;30.83;;
33690;SDS011;20026;50.058;18.428;2022-10-17T02:48:02;39.85;;;28.60;;
33690;SDS011;20026;50.058;18.428;2022-10-17T02:50:41;77.43;;;50.10;;
33690;SDS011;20026;50.058;18.428;2022-10-17T02:53:10;56.97;;;34.42;;
33690;SDS011;20026;50.058;18.428;2022-10-17T02:55:42;81.07;;;53.25;;
33690;SDS011;20026;50.058;18.428;2022-10-17T02:58:12;45.08;;;29.77;;
33690;SDS011;20026;50.058;18.428;2022-10-17T03:00:40;48.15;;;30.08;;
33690;SDS011;20026;50.058;18.428;2022-10-17T03:03:28;40.42;;;26.98;;
33690;SDS011;20026;50.058;18.428;2022-10-17T03:05:52;46.90;;;28.88;;
33690;SDS011;20026;50.058;18.428;2022-10-17T03:08:19;39.45;;;27.48;;
33690;SDS011;20026;50.058;18.428;2022-10-17T03:10:45;39.35;;;27.45;;
33690;SDS011;20026;50.058;18.428;2022-10-17T03:13:11;42.65;;;28.35;;
33690;SDS011;20026;50.058;18.428;2022-10-17T03:15:37;40.05;;;26.83;;
33690;SDS011;20026;50.058;18.428;2022-10-17T03:18:03;44.38;;;27.88;;
33690;SDS011;20026;50.058;18.428;2022-10-17T03:20:29;86.55;;;52.03;;
33690;SDS011;20026;50.058;18.428;2022-10-17T03:22:55;174.93;;;90.70;;
33690;SDS011;20026;50.058;18.428;2022-10-17T03:25:21;193.90;;;101.40;;
33690;SDS011;20026;50.058;18.428;2022-10-17T03:27:47;55.67;;;33.95;;
33690;SDS011;20026;50.058;18.428;2022-10-17T03:30:13;44.97;;;29.13;;
33690;SDS011;20026;50.058;18.428;2022-10-17T03:32:39;45.25;;;30.75;;
33690;SDS011;20026;50.058;18.428;2022-10-17T03:35:05;41.00;;;28.83;;
33690;SDS011;20026;50.058;18.428;2022-10-17T03:37:31;45.97;;;28.90;;
33690;SDS011;20026;50.058;18.428;2022-10-17T03:39:57;59.33;;;38.10;;
33690;SDS011;20026;50.058;18.428;2022-10-17T03:42:23;76.88;;;52.35;;
33690;SDS011;20026;50.058;18.428;2022-10-17T03:44:48;70.30;;;41.35;;
33690;SDS011;20026;50.058;18.428;2022-10-17T03:47:14;49.53;;;32.88;;
33690;SDS011;20026;50.058;18.428;2022-10-17T03:49:40;46.97;;;30.90;;
33690;SDS011;20026;50.058;18.428;2022-10-17T03:52:10;58.58;;;34.97;;
33690;SDS011;20026;50.058;18.428;2022-10-17T03:54:36;338.17;;;115.32;;
33690;SDS011;20026;50.058;18.428;2022-10-17T03:57:02;77.55;;;37.63;;
33690;SDS011;20026;50.058;18.428;2022-10-17T03:59:28;107.90;;;49.33;;
33690;SDS011;20026;50.058;18.428;2022-10-17T04:01:54;635.60;;;224.18;;
33690;SDS011;20026;50.058;18.428;2022-10-17T04:04:20;299.95;;;100.43;;
33690;SDS011;20026;50.058;18.428;2022-10-17T04:06:46;288.38;;;166.32;;
33690;SDS011;20026;50.058;18.428;2022-10-17T04:09:12;213.48;;;105.15;;
33690;SDS011;20026;50.058;18.428;2022-10-17T04:11:38;172.02;;;82.75;;
33690;SDS011;20026;50.058;18.428;2022-10-17T04:14:04;75.30;;;43.38;;
33690;SDS011;20026;50.058;18.428;2022-10-17T04:16:30;95.57;;;49.58;;
33690;SDS011;20026;50.058;18.428;2022-10-17T04:18:56;57.22;;;37.58;;
33690;SDS011;20026;50.058;18.428;2022-10-17T04:21:24;61.60;;;39.53;;
33690;SDS011;20026;50.058;18.428;2022-10-17T04:23:53;67.15;;;40.90;;
33690;SDS011;20026;50.058;18.428;2022-10-17T04:26:20;63.85;;;38.38;;
33690;SDS011;20026;50.058;18.428;2022-10-17T04:28:46;65.93;;;37.40;;
33690;SDS011;20026;50.058;18.428;2022-10-17T04:31:12;57.13;;;34.03;;
33690;SDS011;20026;50.058;18.428;2022-10-17T04:33:39;55.40;;;33.00;;
33690;SDS011;20026;50.058;18.428;2022-10-17T04:36:08;65.80;;;36.20;;
33690;SDS011;20026;50.058;18.428;2022-10-17T04:38:35;64.00;;;34.17;;
33690;SDS011;20026;50.058;18.428;2022-10-17T04:41:02;61.15;;;34.47;;
33690;SDS011;20026;50.058;18.428;2022-10-17T04:43:29;47.47;;;29.50;;
33690;SDS011;20026;50.058;18.428;2022-10-17T04:45:58;58.78;;;34.53;;
33690;SDS011;20026;50.058;18.428;2022-10-17T04:48:25;57.05;;;32.67;;
33690;SDS011;20026;50.058;18.428;2022-10-17T04:50:52;44.28;;;29.50;;
33690;SDS011;20026;50.058;18.428;2022-10-17T04:53:18;74.10;;;39.67;;
33690;SDS011;20026;50.058;18.428;2022-10-17T04:55:43;47.97;;;29.08;;
33690;SDS011;20026;50.058;18.428;2022-10-17T04:58:09;78.32;;;40.42;;
33690;SDS011;20026;50.058;18.428;2022-10-17T05:00:35;37.40;;;26.42;;
33690;SDS011;20026;50.058;18.428;2022-10-17T05:03:01;40.65;;;25.77;;
33690;SDS011;20026;50.058;18.428;2022-10-17T05:05:27;42.70;;;26.70;;
33690;SDS011;20026;50.058;18.428;2022-10-17T05:07:53;40.45;;;23.40;;
33690;SDS011;20026;50.058;18.428;2022-10-17T05:10:19;31.50;;;22.45;;
33690;SDS011;20026;50.058;18.428;2022-10-17T05:12:46;34.15;;;24.40;;
33690;SDS011;20026;50.058;18.428;2022-10-17T05:15:12;33.15;;;23.05;;
33690;SDS011;20026;50.058;18.428;2022-10-17T05:17:38;39.47;;;22.98;;
33690;SDS011;20026;50.058;18.428;2022-10-17T05:20:04;33.08;;;21.88;;
33690;SDS011;20026;50.058;18.428;2022-10-17T05:22:30;32.83;;;21.35;;
33690;SDS011;20026;50.058;18.428;2022-10-17T05:24:56;28.35;;;19.63;;
33690;SDS011;20026;50.058;18.428;2022-10-17T05:27:22;35.55;;;21.70;;
33690;SDS011;20026;50.058;18.428;2022-10-17T05:29:48;28.38;;;18.80;;
33690;SDS011;20026;50.058;18.428;2022-10-17T05:32:14;27.13;;;17.38;;
33690;SDS011;20026;50.058;18.428;2022-10-17T05:34:41;40.42;;;23.00;;
33690;SDS011;20026;50.058;18.428;2022-10-17T05:37:07;35.30;;;20.52;;
33690;SDS011;20026;50.058;18.428;2022-10-17T05:39:32;25.42;;;17.90;;
33690;SDS011;20026;50.058;18.428;2022-10-17T05:41:58;27.80;;;18.90;;
33690;SDS011;20026;50.058;18.428;2022-10-17T05:44:24;26.75;;;19.33;;
33690;SDS011;20026;50.058;18.428;2022-10-17T05:46:50;31.73;;;18.55;;
33690;SDS011;20026;50.058;18.428;2022-10-17T05:49:16;28.52;;;18.75;;
33690;SDS011;20026;50.058;18.428;2022-10-17T05:51:42;25.27;;;16.25;;
33690;SDS011;20026;50.058;18.428;2022-10-17T05:54:08;25.35;;;17.08;;
33690;SDS011;20026;50.058;18.428;2022-10-17T05:56:34;28.52;;;17.35;;
33690;SDS011;20026;50.058;18.428;2022-10-17T05:59:00;25.92;;;17.23;;
33690;SDS011;20026;50.058;18.428;2022-10-17T06:01:27;28.40;;;17.50;;
33690;SDS011;20026;50.058;18.428;2022-10-17T06:03:53;26.58;;;17.83;;
33690;SDS011;20026;50.058;18.428;2022-10-17T06:06:19;28.08;;;17.13;;
33690;SDS011;20026;50.058;18.428;2022-10-17T06:08:45;23.60;;;15.25;;
33690;SDS011;20026;50.058;18.428;2022-10-17T06:11:11;24.40;;;15.80;;
33690;SDS011;20026;50.058;18.428;2022-10-17T06:13:37;34.05;;;16.65;;
33690;SDS011;20026;50.058;18.428;2022-10-17T06:16:04;24.60;;;15.27;;
33690;SDS011;20026;50.058;18.428;2022-10-17T06:18:30;23.08;;;15.18;;
33690;SDS011;20026;50.058;18.428;2022-10-17T06:21:03;23.52;;;14.93;;
33690;SDS011;20026;50.058;18.428;2022-10-17T06:23:29;17.05;;;12.95;;
33690;SDS011;20026;50.058;18.428;2022-10-17T06:25:58;23.08;;;13.77;;
33690;SDS011;20026;50.058;18.428;2022-10-17T06:28:25;20.35;;;12.75;;
33690;SDS011;20026;50.058;18.428;2022-10-17T06:30:51;24.35;;;13.15;;
33690;SDS011;20026;50.058;18.428;2022-10-17T06:33:16;46.13;;;17.05;;
33690;SDS011;20026;50.058;18.428;2022-10-17T06:35:49;141.48;;;71.68;;
33690;SDS011;20026;50.058;18.428;2022-10-17T06:38:15;153.45;;;74.50;;
33690;SDS011;20026;50.058;18.428;2022-10-17T06:40:41;51.03;;;26.23;;
33690;SDS011;20026;50.058;18.428;2022-10-17T06:43:07;34.25;;;19.70;;
33690;SDS011;20026;50.058;18.428;2022-10-17T06:45:33;59.45;;;29.20;;
33690;SDS011;20026;50.058;18.428;2022-10-17T06:48:00;38.60;;;20.48;;
33690;SDS011;20026;50.058;18.428;2022-10-17T06:50:26;48.03;;;23.00;;
33690;SDS011;20026;50.058;18.428;2022-10-17T06:52:52;41.47;;;21.20;;
33690;SDS011;20026;50.058;18.428;2022-10-17T06:55:18;25.63;;;13.77;;
33690;SDS011;20026;50.058;18.428;2022-10-17T06:57:44;22.50;;;14.05;;
33690;SDS011;20026;50.058;18.428;2022-10-17T07:00:10;18.38;;;12.55;;
33690;SDS011;20026;50.058;18.428;2022-10-17T07:02:36;21.05;;;12.98;;
33690;SDS011;20026;50.058;18.428;2022-10-17T07:05:02;14.05;;;10.98;;
33690;SDS011;20026;50.058;18.428;2022-10-17T07:07:31;14.80;;;11.80;;
33690;SDS011;20026;50.058;18.428;2022-10-17T07:09:57;14.83;;;10.67;;
33690;SDS011;20026;50.058;18.428;2022-10-17T07:12:23;18.98;;;10.95;;
33690;SDS011;20026;50.058;18.428;2022-10-17T07:14:49;14.02;;;9.60;;
33690;SDS011;20026;50.058;18.428;2022-10-17T07:17:16;15.55;;;10.88;;
33690;SDS011;20026;50.058;18.428;2022-10-17T07:19:42;17.55;;;9.90;;
33690;SDS011;20026;50.058;18.428;2022-10-17T07:22:09;13.07;;;9.90;;
33690;SDS011;20026;50.058;18.428;2022-10-17T07:24:35;12.48;;;9.98;;
33690;SDS011;20026;50.058;18.428;2022-10-17T07:27:01;18.20;;;9.77;;
33690;SDS011;20026;50.058;18.428;2022-10-17T07:29:27;13.35;;;9.35;;
33690;SDS011;20026;50.058;18.428;2022-10-17T07:31:53;19.48;;;11.50;;
33690;SDS011;20026;50.058;18.428;2022-10-17T07:34:19;17.08;;;8.63;;
33690;SDS011;20026;50.058;18.428;2022-10-17T07:36:45;14.82;;;9.35;;
33690;SDS011;20026;50.058;18.428;2022-10-17T07:39:11;15.98;;;9.73;;
33690;SDS011;20026;50.058;18.428;2022-10-17T07:41:37;12.25;;;8.32;;
33690;SDS011;20026;50.058;18.428;2022-10-17T07:44:03;13.88;;;8.20;;
33690;SDS011;20026;50.058;18.428;2022-10-17T07:46:29;10.80;;;7.97;;
33690;SDS011;20026;50.058;18.428;2022-10-17T07:48:55;13.85;;;8.63;;
33690;SDS011;20026;50.058;18.428;2022-10-17T07:51:21;20.38;;;15.98;;
33690;SDS011;20026;50.058;18.428;2022-10-17T07:53:47;17.02;;;9.07;;
33690;SDS011;20026;50.058;18.428;2022-10-17T07:56:13;13.38;;;8.50;;
33690;SDS011;20026;50.058;18.428;2022-10-17T07:58:39;11.93;;;8.70;;
33690;SDS011;20026;50.058;18.428;2022-10-17T08:01:07;13.80;;;8.05;;
33690;SDS011;20026;50.058;18.428;2022-10-17T08:03:34;11.25;;;8.85;;
33690;SDS011;20026;50.058;18.428;2022-10-17T08:06:01;12.43;;;8.95;;
33690;SDS011;20026;50.058;18.428;2022-10-17T08:08:27;12.07;;;9.73;;
33690;SDS011;20026;50.058;18.428;2022-10-17T08:11:00;14.55;;;8.48;;
33690;SDS011;20026;50.058;18.428;2022-10-17T08:13:26;9.93;;;7.72;;
33690;SDS011;20026;50.058;18.428;2022-10-17T08:15:52;16.92;;;9.00;;
33690;SDS011;20026;50.058;18.428;2022-10-17T08:18:18;14.52;;;8.60;;
33690;SDS011;20026;50.058;18.428;2022-10-17T08:20:44;12.70;;;9.00;;
33690;SDS011;20026;50.058;18.428;2022-10-17T08:23:10;13.77;;;8.93;;
33690;SDS011;20026;50.058;18.428;2022-10-17T08:25:37;23.10;;;10.68;;
33690;SDS011;20026;50.058;18.428;2022-10-17T08:28:03;10.20;;;7.93;;
33690;SDS011;20026;50.058;18.428;2022-10-17T08:30:29;14.38;;;8.98;;
33690;SDS011;20026;50.058;18.428;2022-10-17T08:32:55;14.40;;;7.72;;
33690;SDS011;20026;50.058;18.428;2022-10-17T08:35:21;13.57;;;7.78;;
33690;SDS011;20026;50.058;18.428;2022-10-17T08:37:47;16.05;;;8.10;;
33690;SDS011;20026;50.058;18.428;2022-10-17T08:40:16;14.82;;;7.75;;
33690;SDS011;20026;50.058;18.428;2022-10-17T08:45:15;14.40;;;8.90;;
33690;SDS011;20026;50.058;18.428;2022-10-17T08:47:44;9.55;;;8.20;;
33690;SDS011;20026;50.058;18.428;2022-10-17T08:53:02;12.50;;;8.48;;
33690;SDS011;20026;50.058;18.428;2022-10-17T08:57:55;14.80;;;10.02;;
33690;SDS011;20026;50.058;18.428;2022-10-17T09:00:21;12.20;;;8.55;;
33690;SDS011;20026;50.058;18.428;2022-10-17T09:10:12;15.77;;;8.93;;
33690;SDS011;20026;50.058;18.428;2022-10-17T09:20:52;13.75;;;8.73;;
33690;SDS011;20026;50.058;18.428;2022-10-17T09:23:20;12.35;;;8.48;;
33690;SDS011;20026;50.058;18.428;2022-10-17T09:25:48;16.95;;;10.63;;
33690;SDS011;20026;50.058;18.428;2022-10-17T09:28:16;11.80;;;8.55;;
33690;SDS011;20026;50.058;18.428;2022-10-17T09:33:17;13.35;;;8.88;;
33690;SDS011;20026;50.058;18.428;2022-10-17T09:35:43;14.30;;;9.07;;
33690;SDS011;20026;50.058;18.428;2022-10-17T09:38:14;20.40;;;14.35;;
33690;SDS011;20026;50.058;18.428;2022-10-17T09:40:41;13.55;;;8.40;;
33690;SDS011;20026;50.058;18.428;2022-10-17T09:43:07;14.98;;;7.88;;
33690;SDS011;20026;50.058;18.428;2022-10-17T09:45:38;17.48;;;10.27;;
33690;SDS011;20026;50.058;18.428;2022-10-17T09:48:20;10.80;;;7.55;;
33690;SDS011;20026;50.058;18.428;2022-10-17T09:50:48;15.70;;;8.15;;
33690;SDS011;20026;50.058;18.428;2022-10-17T09:53:19;16.05;;;7.85;;
33690;SDS011;20026;50.058;18.428;2022-10-17T09:55:47;11.15;;;7.93;;
33690;SDS011;20026;50.058;18.428;2022-10-17T09:58:14;9.27;;;6.68;;
33690;SDS011;20026;50.058;18.428;2022-10-17T10:00:41;12.30;;;7.15;;
33690;SDS011;20026;50.058;18.428;2022-10-17T10:03:21;9.23;;;6.63;;
33690;SDS011;20026;50.058;18.428;2022-10-17T10:08:14;14.23;;;7.13;;
33690;SDS011;20026;50.058;18.428;2022-10-17T10:10:40;10.23;;;7.25;;
33690;SDS011;20026;50.058;18.428;2022-10-17T10:15:40;11.00;;;7.80;;
33690;SDS011;20026;50.058;18.428;2022-10-17T10:23:27;22.65;;;9.65;;
33690;SDS011;20026;50.058;18.428;2022-10-17T10:25:55;14.32;;;8.85;;
33690;SDS011;20026;50.058;18.428;2022-10-17T10:28:31;10.48;;;7.75;;
33690;SDS011;20026;50.058;18.428;2022-10-17T10:30:58;29.73;;;16.23;;
33690;SDS011;20026;50.058;18.428;2022-10-17T10:33:25;46.60;;;23.13;;
33690;SDS011;20026;50.058;18.428;2022-10-17T10:35:56;14.18;;;7.30;;
33690;SDS011;20026;50.058;18.428;2022-10-17T10:38:22;14.00;;;8.43;;
33690;SDS011;20026;50.058;18.428;2022-10-17T10:40:50;11.98;;;8.20;;
33690;SDS011;20026;50.058;18.428;2022-10-17T10:43:25;8.02;;;6.38;;
33690;SDS011;20026;50.058;18.428;2022-10-17T10:45:53;14.23;;;8.85;;
33690;SDS011;20026;50.058;18.428;2022-10-17T10:48:20;9.55;;;6.63;;
33690;SDS011;20026;50.058;18.428;2022-10-17T10:50:58;11.05;;;7.25;;
33690;SDS011;20026;50.058;18.428;2022-10-17T10:56:04;10.55;;;7.65;;
33690;SDS011;20026;50.058;18.428;2022-10-17T10:58:39;8.45;;;6.80;;
33690;SDS011;20026;50.058;18.428;2022-10-17T11:03:58;13.50;;;6.40;;
33690;SDS011;20026;50.058;18.428;2022-10-17T11:06:26;8.45;;;6.43;;
33690;SDS011;20026;50.058;18.428;2022-10-17T11:11:41;9.00;;;6.07;;
33690;SDS011;20026;50.058;18.428;2022-10-17T11:16:43;9.75;;;6.70;;
33690;SDS011;20026;50.058;18.428;2022-10-17T11:25:03;11.82;;;8.10;;
33690;SDS011;20026;50.058;18.428;2022-10-17T11:27:30;12.70;;;6.75;;
33690;SDS011;20026;50.058;18.428;2022-10-17T11:29:56;10.43;;;6.20;;
33690;SDS011;20026;50.058;18.428;2022-10-17T11:32:26;10.75;;;6.43;;
33690;SDS011;20026;50.058;18.428;2022-10-17T11:34:57;7.85;;;6.15;;
33690;SDS011;20026;50.058;18.428;2022-10-17T11:37:29;11.77;;;6.88;;
33690;SDS011;20026;50.058;18.428;2022-10-17T11:40:01;8.82;;;6.30;;
33690;SDS011;20026;50.058;18.428;2022-10-17T11:42:35;9.70;;;8.07;;
33690;SDS011;20026;50.058;18.428;2022-10-17T11:45:05;16.05;;;11.00;;
33690;SDS011;20026;50.058;18.428;2022-10-17T11:47:38;8.98;;;6.30;;
33690;SDS011;20026;50.058;18.428;2022-10-17T11:50:16;14.50;;;9.55;;
33690;SDS011;20026;50.058;18.428;2022-10-17T11:52:45;12.13;;;8.15;;
33690;SDS011;20026;50.058;18.428;2022-10-17T11:55:35;17.50;;;12.85;;
33690;SDS011;20026;50.058;18.428;2022-10-17T12:15:56;8.88;;;6.10;;
33690;SDS011;20026;50.058;18.428;2022-10-17T12:18:23;12.45;;;6.07;;
33690;SDS011;20026;50.058;18.428;2022-10-17T12:20:55;11.07;;;6.18;;
33690;SDS011;20026;50.058;18.428;2022-10-17T12:23:25;9.73;;;5.57;;
33690;SDS011;20026;50.058;18.428;2022-10-17T12:25:53;20.33;;;16.00;;
33690;SDS011;20026;50.058;18.428;2022-10-17T12:30:49;11.90;;;7.60;;
33690;SDS011;20026;50.058;18.428;2022-10-17T12:33:17;9.70;;;8.07;;
33690;SDS011;20026;50.058;18.428;2022-10-17T12:35:46;13.05;;;7.93;;
33690;SDS011;20026;50.058;18.428;2022-10-17T12:38:18;15.15;;;9.45;;
33690;SDS011;20026;50.058;18.428;2022-10-17T12:45:46;13.15;;;6.35;;
33690;SDS011;20026;50.058;18.428;2022-10-17T12:53:30;23.20;;;12.73;;
33690;SDS011;20026;50.058;18.428;2022-10-17T12:55:58;30.35;;;15.60;;
33690;SDS011;20026;50.058;18.428;2022-10-17T12:58:24;12.43;;;8.07;;
33690;SDS011;20026;50.058;18.428;2022-10-17T13:00:54;12.10;;;7.38;;
33690;SDS011;20026;50.058;18.428;2022-10-17T13:03:25;7.38;;;5.80;;
33690;SDS011;20026;50.058;18.428;2022-10-17T13:05:55;7.78;;;6.53;;
33690;SDS011;20026;50.058;18.428;2022-10-17T13:10:54;13.68;;;6.80;;
33690;SDS011;20026;50.058;18.428;2022-10-17T13:13:24;15.20;;;7.95;;
33690;SDS011;20026;50.058;18.428;2022-10-17T13:15:52;9.63;;;6.53;;
33690;SDS011;20026;50.058;18.428;2022-10-17T13:18:22;11.85;;;6.75;;
33690;SDS011;20026;50.058;18.428;2022-10-17T13:23:21;8.77;;;6.35;;
33690;SDS011;20026;50.058;18.428;2022-10-17T13:25:58;16.40;;;11.63;;
33690;SDS011;20026;50.058;18.428;2022-10-17T13:28:26;10.87;;;7.63;;
33690;SDS011;20026;50.058;18.428;2022-10-17T13:30:53;10.27;;;6.47;;
33690;SDS011;20026;50.058;18.428;2022-10-17T13:33:30;11.50;;;6.05;;
33690;SDS011;20026;50.058;18.428;2022-10-17T13:35:57;12.10;;;8.20;;
33690;SDS011;20026;50.058;18.428;2022-10-17T13:38:25;17.48;;;9.55;;
33690;SDS011;20026;50.058;18.428;2022-10-17T13:40:52;11.07;;;7.40;;
33690;SDS011;20026;50.058;18.428;2022-10-17T13:43:19;12.20;;;6.80;;
33690;SDS011;20026;50.058;18.428;2022-10-17T13:45:48;12.07;;;5.75;;
33690;SDS011;20026;50.058;18.428;2022-10-17T13:48:16;14.48;;;9.57;;
33690;SDS011;20026;50.058;18.428;2022-10-17T13:50:43;7.13;;;5.85;;
33690;SDS011;20026;50.058;18.428;2022-10-17T13:53:19;10.35;;;6.18;;
33690;SDS011;20026;50.058;18.428;2022-10-17T13:55:52;9.68;;;6.03;;
33690;SDS011;20026;50.058;18.428;2022-10-17T13:58:18;13.18;;;7.85;;
33690;SDS011;20026;50.058;18.428;2022-10-17T14:00:44;8.93;;;5.60;;
33690;SDS011;20026;50.058;18.428;2022-10-17T14:03:11;8.80;;;5.93;;
33690;SDS011;20026;50.058;18.428;2022-10-17T14:08:22;8.93;;;5.80;;
33690;SDS011;20026;50.058;18.428;2022-10-17T14:10:48;8.65;;;6.35;;
33690;SDS011;20026;50.058;18.428;2022-10-17T14:13:21;12.85;;;8.20;;
33690;SDS011;20026;50.058;18.428;2022-10-17T14:15:48;10.05;;;6.95;;
33690;SDS011;20026;50.058;18.428;2022-10-17T14:18:18;9.30;;;6.28;;
33690;SDS011;20026;50.058;18.428;2022-10-17T14:20:45;10.60;;;5.75;;
33690;SDS011;20026;50.058;18.428;2022-10-17T14:23:28;13.65;;;5.80;;
33690;SDS011;20026;50.058;18.428;2022-10-17T14:26:11;9.05;;;6.40;;
33690;SDS011;20026;50.058;18.428;2022-10-17T14:28:37;12.35;;;6.95;;
33690;SDS011;20026;50.058;18.428;2022-10-17T14:31:08;10.23;;;5.50;;
33690;SDS011;20026;50.058;18.428;2022-10-17T14:33:35;7.68;;;5.55;;
33690;SDS011;20026;50.058;18.428;2022-10-17T14:36:01;7.20;;;5.60;;
33690;SDS011;20026;50.058;18.428;2022-10-17T14:38:29;12.07;;;6.00;;
33690;SDS011;20026;50.058;18.428;2022-10-17T14:40:57;10.48;;;6.78;;
33690;SDS011;20026;50.058;18.428;2022-10-17T14:43:24;11.20;;;7.40;;
33690;SDS011;20026;50.058;18.428;2022-10-17T14:45:51;15.40;;;9.25;;
33690;SDS011;20026;50.058;18.428;2022-10-17T14:48:19;15.25;;;8.82;;
33690;SDS011;20026;50.058;18.428;2022-10-17T14:53:31;15.32;;;10.40;;
33690;SDS011;20026;50.058;18.428;2022-10-17T14:56:01;16.02;;;9.40;;
33690;SDS011;20026;50.058;18.428;2022-10-17T14:58:28;20.02;;;10.27;;
33690;SDS011;20026;50.058;18.428;2022-10-17T15:00:55;24.98;;;14.50;;
33690;SDS011;20026;50.058;18.428;2022-10-17T15:03:21;21.35;;;11.40;;
33690;SDS011;20026;50.058;18.428;2022-10-17T15:05:48;16.55;;;10.13;;
33690;SDS011;20026;50.058;18.428;2022-10-17T15:08:17;21.95;;;11.32;;
33690;SDS011;20026;50.058;18.428;2022-10-17T15:10:44;18.67;;;10.43;;
33690;SDS011;20026;50.058;18.428;2022-10-17T15:13:10;18.50;;;9.52;;
33690;SDS011;20026;50.058;18.428;2022-10-17T15:15:37;11.23;;;8.50;;
33690;SDS011;20026;50.058;18.428;2022-10-17T15:18:03;14.52;;;9.65;;
33690;SDS011;20026;50.058;18.428;2022-10-17T15:20:30;18.95;;;10.90;;
33690;SDS011;20026;50.058;18.428;2022-10-17T15:22:57;21.52;;;13.32;;
33690;SDS011;20026;50.058;18.428;2022-10-17T15:25:23;21.10;;;12.45;;
33690;SDS011;20026;50.058;18.428;2022-10-17T15:27:49;25.52;;;13.70;;
33690;SDS011;20026;50.058;18.428;2022-10-17T15:32:41;15.43;;;11.18;;
33690;SDS011;20026;50.058;18.428;2022-10-17T15:35:07;19.17;;;12.15;;
33690;SDS011;20026;50.058;18.428;2022-10-17T15:37:33;21.98;;;12.23;;
33690;SDS011;20026;50.058;18.428;2022-10-17T15:39:59;13.63;;;8.15;;
33690;SDS011;20026;50.058;18.428;2022-10-17T15:42:26;18.52;;;9.18;;
33690;SDS011;20026;50.058;18.428;2022-10-17T15:44:52;27.88;;;12.80;;
33690;SDS011;20026;50.058;18.428;2022-10-17T15:47:29;28.27;;;14.07;;
33690;SDS011;20026;50.058;18.428;2022-10-17T15:49:57;29.52;;;14.18;;
33690;SDS011;20026;50.058;18.428;2022-10-17T15:52:23;31.17;;;14.43;;
33690;SDS011;20026;50.058;18.428;2022-10-17T15:54:49;14.45;;;7.75;;
33690;SDS011;20026;50.058;18.428;2022-10-17T15:57:17;22.73;;;8.20;;
33690;SDS011;20026;50.058;18.428;2022-10-17T15:59:43;20.27;;;8.43;;
33690;SDS011;20026;50.058;18.428;2022-10-17T16:02:14;28.63;;;9.18;;
33690;SDS011;20026;50.058;18.428;2022-10-17T16:04:40;13.15;;;7.88;;
33690;SDS011;20026;50.058;18.428;2022-10-17T16:07:06;14.77;;;6.82;;
33690;SDS011;20026;50.058;18.428;2022-10-17T16:09:33;17.08;;;8.30;;
33690;SDS011;20026;50.058;18.428;2022-10-17T16:12:01;15.35;;;8.05;;
33690;SDS011;20026;50.058;18.428;2022-10-17T16:14:27;16.13;;;8.07;;